createdAt,value
2019-02-22T00:01:37.576Z,62.40
2019-02-22T00:06:41.503Z,62.70
2019-02-22T00:11:45.423Z,62.70
2019-02-22T00:16:49.279Z,62.80
2019-02-22T00:21:53.214Z,62.70
2019-02-22T00:26:57.095Z,62.90
2019-02-22T00:32:00.949Z,62.90
2019-02-22T00:37:05.021Z,62.80
2019-02-22T00:42:08.975Z,63.30
2019-02-22T00:47:12.839Z,62.70
2019-02-22T00:52:16.759Z,63.00
2019-02-22T00:57:20.636Z,63.00
2019-02-22T01:02:24.492Z,63.10
2019-02-22T01:07:28.351Z,63.00
2019-02-22T01:12:32.276Z,63.20
2019-02-22T01:17:36.139Z,63.50
2019-02-22T01:22:40.067Z,63.50
2019-02-22T01:27:43.955Z,63.30
2019-02-22T01:32:47.815Z,63.40
2019-02-22T01:37:51.665Z,63.60
2019-02-22T01:42:55.692Z,63.50
2019-02-22T01:47:59.560Z,63.50
2019-02-22T01:53:03.411Z,63.60
2019-02-22T01:58:07.263Z,63.40
2019-02-22T02:03:11.264Z,63.10
2019-02-22T02:08:15.127Z,63.50
2019-02-22T02:13:19.076Z,63.30
2019-02-22T02:18:22.928Z,63.00
2019-02-22T02:23:26.883Z,63.30
2019-02-22T02:28:30.835Z,63.50
2019-02-22T02:33:34.695Z,62.80
2019-02-22T02:38:38.633Z,62.80
2019-02-22T02:43:42.680Z,63.00
2019-02-22T02:48:46.702Z,62.90
2019-02-22T02:53:50.652Z,63.40
2019-02-22T02:58:54.536Z,63.30
2019-02-22T03:03:58.470Z,63.20
2019-02-22T03:09:03.326Z,63.70
2019-02-22T03:14:07.180Z,63.90
2019-02-22T03:19:11.355Z,63.50
2019-02-22T03:24:17.359Z,63.30
2019-02-22T03:29:21.219Z,63.40
2019-02-22T03:34:25.111Z,63.70
2019-02-22T03:39:29.027Z,63.00
2019-02-22T03:44:33.038Z,62.80
2019-02-22T03:49:36.927Z,63.10
2019-02-22T03:54:40.945Z,62.90
2019-02-22T03:59:44.965Z,62.80
2019-02-22T04:04:48.898Z,62.80
2019-02-22T04:09:52.859Z,62.80
2019-02-22T04:14:56.860Z,63.30
2019-02-22T04:20:00.732Z,63.30
2019-02-22T04:25:04.820Z,63.60
2019-02-22T04:30:09.157Z,64.00
2019-02-22T04:35:13.136Z,63.70
2019-02-22T04:40:17.136Z,64.20
2019-02-22T04:45:21.410Z,63.20
2019-02-22T04:50:25.433Z,64.00
2019-02-22T04:55:29.491Z,63.20
2019-02-22T05:00:33.483Z,63.10
2019-02-22T05:05:37.440Z,62.90
2019-02-22T05:10:41.386Z,62.70
2019-02-22T05:15:45.334Z,62.50
2019-02-22T05:20:49.227Z,62.40
2019-02-22T05:25:54.482Z,62.50
2019-02-22T05:30:58.471Z,63.10
2019-02-22T05:36:02.615Z,62.60
2019-02-22T05:41:07.316Z,62.50
2019-02-22T05:46:11.234Z,62.90
2019-02-22T05:51:15.314Z,62.60
2019-02-22T05:56:19.292Z,62.70
2019-02-22T06:01:23.177Z,62.30
2019-02-22T06:06:27.079Z,62.50
2019-02-22T06:11:31.035Z,69.50
2019-02-22T06:16:36.641Z,65.70
2019-02-22T06:21:40.672Z,63.50
2019-02-22T06:26:44.607Z,62.90
2019-02-22T06:31:48.493Z,63.00
2019-02-22T06:37:01.271Z,63.10
2019-02-22T06:41:58.083Z,63.20
2019-02-22T06:47:01.964Z,63.00
2019-02-22T06:52:06.122Z,63.10
2019-02-22T06:57:10.478Z,63.00
2019-02-22T07:02:14.393Z,62.90
2019-02-22T07:07:18.383Z,62.90
2019-02-22T07:12:28.182Z,63.50
2019-02-22T07:17:32.059Z,62.90
2019-02-22T07:22:36.036Z,63.10
2019-02-22T07:27:39.924Z,62.80
2019-02-22T07:32:43.839Z,63.00
2019-02-22T07:37:47.769Z,62.80
2019-02-22T07:42:51.672Z,63.00
2019-02-22T07:47:55.651Z,62.80
2019-02-22T07:53:00.026Z,63.00
2019-02-22T07:58:03.983Z,62.90
2019-02-22T08:03:07.962Z,62.60
2019-02-22T08:08:11.875Z,63.00
2019-02-22T08:13:19.843Z,62.60
2019-02-22T08:18:21.603Z,62.60
2019-02-22T08:23:25.568Z,63.20
2019-02-22T08:28:29.600Z,62.50
2019-02-22T08:33:33.493Z,62.90
2019-02-22T08:38:37.519Z,63.10
2019-02-22T08:43:41.495Z,63.00
2019-02-22T08:48:45.404Z,62.80
2019-02-22T08:53:49.303Z,62.90
2019-02-22T08:58:53.263Z,63.10
2019-02-22T09:03:57.278Z,62.90
2019-02-22T09:09:01.340Z,63.10
2019-02-22T09:14:05.313Z,63.00
2019-02-22T09:19:09.365Z,63.00
2019-02-22T09:24:13.510Z,62.60
2019-02-22T09:29:17.794Z,63.00
2019-02-22T09:34:21.704Z,63.30
2019-02-22T09:39:25.615Z,64.10
2019-02-22T09:44:29.599Z,64.50
2019-02-22T09:49:33.484Z,64.30
2019-02-22T09:54:37.525Z,64.00
2019-02-22T09:59:42.244Z,64.00
2019-02-22T10:04:54.444Z,64.90
2019-02-22T10:09:52.884Z,65.10
2019-02-22T10:14:56.956Z,64.50
2019-02-22T10:20:03.982Z,66.10
2019-02-22T10:25:10.878Z,65.70
2019-02-22T10:30:17.142Z,68.50
2019-02-22T10:35:23.207Z,66.10
2019-02-22T10:40:27.345Z,66.40
2019-02-22T10:45:31.495Z,67.00
2019-02-22T10:50:37.955Z,66.20
2019-02-22T10:55:43.152Z,66.00
2019-02-22T11:00:47.183Z,66.70
2019-02-22T11:05:51.144Z,67.20
2019-02-22T11:10:55.218Z,67.70
2019-02-22T11:15:59.195Z,66.60
2019-02-22T11:21:03.161Z,65.80
2019-02-22T11:26:07.646Z,66.40
2019-02-22T11:31:11.623Z,67.20
2019-02-22T11:36:15.530Z,67.30
2019-02-22T11:41:19.443Z,66.10
2019-02-22T11:46:24.291Z,65.60
2019-02-22T11:51:28.259Z,66.30
2019-02-22T11:56:32.315Z,65.90
2019-02-22T12:01:36.335Z,67.40
2019-02-22T12:06:40.251Z,64.90
2019-02-22T12:11:44.335Z,67.00
2019-02-22T12:16:48.274Z,66.60
2019-02-22T12:21:52.179Z,65.70
2019-02-22T12:26:56.161Z,67.60
2019-02-22T12:32:00.191Z,66.80
2019-02-22T12:37:04.208Z,68.10
2019-02-22T12:42:08.127Z,67.70
2019-02-22T12:47:12.300Z,67.90
2019-02-22T12:52:16.259Z,67.80
2019-02-22T12:57:20.333Z,68.40
2019-02-22T13:02:24.556Z,66.70
2019-02-22T13:07:28.459Z,68.30
2019-02-22T13:12:32.439Z,67.10
2019-02-22T13:17:36.339Z,66.60
2019-02-22T13:22:40.359Z,68.00
2019-02-22T13:27:44.359Z,66.90
2019-02-22T13:32:48.412Z,67.00
2019-02-22T13:37:52.529Z,66.60
2019-02-22T13:42:56.503Z,67.50
2019-02-22T13:48:00.789Z,67.80
2019-02-22T13:53:04.907Z,67.60
2019-02-22T13:58:08.988Z,67.20
2019-02-22T14:03:12.912Z,67.70
2019-02-22T14:08:16.852Z,70.60
2019-02-22T14:13:21.023Z,69.70
2019-02-22T14:18:24.919Z,69.80
2019-02-22T14:23:29.413Z,70.40
2019-02-22T14:28:33.395Z,69.10
2019-02-22T14:33:37.291Z,69.00
2019-02-22T14:38:41.206Z,69.30
2019-02-22T14:43:45.311Z,69.00
2019-02-22T14:48:49.352Z,68.10
2019-02-22T14:53:53.505Z,69.50
2019-02-22T14:58:57.559Z,65.60
2019-02-22T15:04:01.567Z,64.70
2019-02-22T15:09:06.965Z,64.60
2019-02-22T15:14:10.935Z,63.80
2019-02-22T15:19:15.254Z,62.90
2019-02-22T15:24:19.298Z,62.40
2019-02-22T15:29:23.512Z,62.00
2019-02-22T15:34:27.502Z,61.50
2019-02-22T15:39:31.466Z,61.20
2019-02-22T15:44:35.532Z,61.20
2019-02-22T15:49:39.436Z,60.90
2019-02-22T15:54:43.999Z,61.10
2019-02-22T15:59:47.997Z,61.70
2019-02-22T16:05:14.722Z,61.40
2019-02-22T16:10:18.783Z,61.90
2019-02-22T16:15:22.814Z,59.40
2019-02-22T16:20:26.852Z,59.30
2019-02-22T16:25:30.809Z,58.70
2019-02-22T16:30:36.654Z,58.70
2019-02-22T16:35:40.612Z,58.50
2019-02-22T16:40:44.571Z,58.00
2019-02-22T16:45:48.475Z,57.50
2019-02-22T16:50:52.519Z,57.10
2019-02-22T16:55:56.611Z,57.50
2019-02-22T17:01:00.662Z,57.00
2019-02-22T17:06:04.816Z,57.20
2019-02-22T17:11:08.896Z,57.10
2019-02-22T17:16:12.964Z,56.80
2019-02-22T17:21:17.030Z,56.90
2019-02-22T17:26:20.926Z,57.60
2019-02-22T17:31:24.981Z,58.80
2019-02-22T17:36:28.991Z,59.80
2019-02-22T17:41:32.939Z,60.20
2019-02-22T17:46:36.843Z,60.40
2019-02-22T17:51:40.821Z,60.70
2019-02-22T17:56:44.784Z,60.40
2019-02-22T18:01:48.756Z,60.20
2019-02-22T18:06:52.739Z,60.90
2019-02-22T18:11:56.728Z,60.70
2019-02-22T18:17:08.019Z,61.00
2019-02-22T18:22:06.503Z,68.00
2019-02-22T18:27:10.552Z,60.10
2019-02-22T18:32:14.497Z,60.30
2019-02-22T18:37:18.427Z,60.90
2019-02-22T18:42:22.422Z,60.90
2019-02-22T18:47:26.435Z,61.20
2019-02-22T18:52:30.408Z,61.30
2019-02-22T18:57:34.360Z,61.30
2019-02-22T19:02:38.335Z,61.50
2019-02-22T19:07:42.306Z,61.00
2019-02-22T19:12:46.417Z,61.20
2019-02-22T19:17:50.416Z,61.40
2019-02-22T19:22:54.640Z,61.40
2019-02-22T19:27:58.578Z,61.40
2019-02-22T19:33:02.551Z,61.60
2019-02-22T19:38:06.523Z,61.50
2019-02-22T19:43:10.527Z,61.70
2019-02-22T19:48:14.415Z,61.40
2019-02-22T19:53:18.399Z,60.90
2019-02-22T19:58:22.292Z,61.70
2019-02-22T20:03:26.221Z,61.30
2019-02-22T20:08:30.238Z,61.60
2019-02-22T20:13:34.178Z,61.20
2019-02-22T20:18:38.154Z,60.90
2019-02-22T20:23:42.050Z,61.00
2019-02-22T20:28:46.046Z,61.00
2019-02-22T20:33:49.931Z,61.00
2019-02-22T20:38:53.899Z,61.10
2019-02-22T20:43:57.819Z,60.80
2019-02-22T20:49:02.315Z,60.80
2019-02-22T20:54:06.213Z,60.70
2019-02-22T20:59:10.253Z,60.90
2019-02-22T21:04:14.170Z,61.10
2019-02-22T21:09:18.455Z,60.90
2019-02-22T21:14:22.503Z,60.50
2019-02-22T21:19:26.478Z,60.90
2019-02-22T21:24:30.411Z,60.50
2019-02-22T21:29:34.339Z,60.50
2019-02-22T21:34:38.326Z,60.20
2019-02-22T21:39:42.304Z,60.40
2019-02-22T21:44:46.447Z,60.60
2019-02-22T21:49:50.431Z,61.50
2019-02-22T21:54:54.295Z,60.50
2019-02-22T21:59:58.179Z,60.00
2019-02-22T22:05:02.134Z,60.60
2019-02-22T22:10:06.219Z,60.40
2019-02-22T22:15:10.814Z,59.90
2019-02-22T22:20:14.896Z,60.40
2019-02-22T22:25:18.851Z,61.00
2019-02-22T22:30:22.722Z,60.20
2019-02-22T22:35:26.682Z,60.40
2019-02-22T22:40:30.559Z,60.80
2019-02-22T22:45:34.576Z,60.50
2019-02-22T22:50:38.755Z,60.10
2019-02-22T22:55:42.695Z,60.00
2019-02-22T23:01:08.156Z,60.50
2019-02-22T23:06:14.407Z,60.10
2019-02-22T23:11:18.619Z,60.70
2019-02-22T23:16:22.486Z,60.10
2019-02-22T23:21:26.591Z,60.30
2019-02-22T23:26:30.655Z,60.20
2019-02-22T23:31:34.527Z,60.30
2019-02-22T23:36:38.399Z,59.80
2019-02-22T23:41:42.523Z,60.00
2019-02-22T23:46:46.400Z,60.10
2019-02-22T23:51:50.294Z,60.40
2019-02-22T23:56:54.188Z,60.20
